createdAt,value
2018-10-18T00:00:41.278Z,0
2018-10-18T00:01:49.341Z,0
2018-10-18T00:02:57.407Z,0
2018-10-18T00:04:05.486Z,0
2018-10-18T00:05:13.542Z,0
2018-10-18T00:06:21.606Z,0
2018-10-18T00:07:29.660Z,0
2018-10-18T00:08:37.723Z,0
2018-10-18T00:09:45.784Z,0
2018-10-18T00:10:53.851Z,0
2018-10-18T00:12:01.978Z,0
2018-10-18T00:13:09.977Z,0
2018-10-18T00:14:18.156Z,0
2018-10-18T00:15:26.107Z,0
2018-10-18T00:16:34.159Z,0
2018-10-18T00:17:42.234Z,0
2018-10-18T00:18:50.274Z,0
2018-10-18T00:19:58.325Z,0
2018-10-18T00:21:06.416Z,0
2018-10-18T00:22:14.484Z,0
2018-10-18T00:23:22.543Z,0
2018-10-18T00:24:30.608Z,0
2018-10-18T00:25:38.633Z,0
2018-10-18T00:26:46.732Z,0
2018-10-18T00:27:54.793Z,0
2018-10-18T00:29:02.846Z,0
2018-10-18T00:30:11.022Z,0
2018-10-18T00:31:18.963Z,0
2018-10-18T00:32:27.053Z,0
2018-10-18T00:33:35.108Z,0
2018-10-18T00:34:43.169Z,0
2018-10-18T00:35:51.237Z,0
2018-10-18T00:36:59.293Z,0
2018-10-18T00:38:07.456Z,0
2018-10-18T00:39:15.427Z,0
2018-10-18T00:40:23.481Z,0
2018-10-18T00:41:31.550Z,0
2018-10-18T00:42:39.609Z,0
2018-10-18T00:43:47.663Z,0
2018-10-18T00:44:55.734Z,0
2018-10-18T00:46:03.799Z,0
2018-10-18T00:47:11.869Z,0
2018-10-18T00:48:19.916Z,0
2018-10-18T00:49:27.981Z,0
2018-10-18T00:50:36.053Z,0
2018-10-18T00:51:44.108Z,0
2018-10-18T00:52:52.160Z,0
2018-10-18T00:54:00.282Z,0
2018-10-18T00:55:08.267Z,0
2018-10-18T00:56:16.439Z,0
2018-10-18T00:57:24.421Z,0
2018-10-18T00:58:32.498Z,0
2018-10-18T00:59:40.551Z,0
2018-10-18T01:00:48.582Z,0
2018-10-18T01:01:56.731Z,0
2018-10-18T01:03:04.744Z,0
2018-10-18T01:04:12.801Z,0
2018-10-18T01:05:20.869Z,0
2018-10-18T01:06:28.915Z,0
2018-10-18T01:07:36.997Z,0
2018-10-18T01:08:45.046Z,0
2018-10-18T01:09:53.112Z,0
2018-10-18T01:11:01.176Z,0
2018-10-18T01:12:09.263Z,0
2018-10-18T01:13:17.312Z,0
2018-10-18T01:14:25.366Z,0
2018-10-18T01:15:33.436Z,0
2018-10-18T01:16:41.496Z,0
2018-10-18T01:17:49.556Z,0
2018-10-18T01:18:57.606Z,0
2018-10-18T01:20:05.781Z,0
2018-10-18T01:21:13.743Z,0
2018-10-18T01:22:21.801Z,0
2018-10-18T01:23:29.872Z,0
2018-10-18T01:24:37.925Z,0
2018-10-18T01:25:45.997Z,0
2018-10-18T01:26:54.057Z,0
2018-10-18T01:28:02.114Z,0
2018-10-18T01:29:10.190Z,0
2018-10-18T01:30:18.220Z,0
2018-10-18T01:31:26.305Z,0
2018-10-18T01:32:34.375Z,0
2018-10-18T01:33:42.434Z,0
2018-10-18T01:34:50.508Z,0
2018-10-18T01:35:58.554Z,0
2018-10-18T01:37:06.645Z,0
2018-10-18T01:38:14.805Z,0
2018-10-18T01:39:22.758Z,0
2018-10-18T01:40:30.803Z,0
2018-10-18T01:41:38.847Z,0
2018-10-18T01:42:46.931Z,0
2018-10-18T01:43:55.015Z,0
2018-10-18T01:45:03.052Z,0
2018-10-18T01:46:11.115Z,0
2018-10-18T01:47:19.180Z,0
2018-10-18T01:48:27.248Z,0
2018-10-18T01:49:35.315Z,0
2018-10-18T01:50:43.372Z,0
2018-10-18T01:51:51.432Z,0
2018-10-18T01:52:59.503Z,0
2018-10-18T01:54:07.624Z,0
2018-10-18T01:55:15.624Z,0
2018-10-18T01:56:23.692Z,0
2018-10-18T01:57:31.758Z,0
2018-10-18T01:58:39.813Z,0
2018-10-18T01:59:47.884Z,0
2018-10-18T02:00:55.945Z,0
2018-10-18T02:02:04.056Z,0
2018-10-18T02:03:12.059Z,0
2018-10-18T02:04:20.130Z,0
2018-10-18T02:05:28.165Z,0
2018-10-18T02:06:36.257Z,0
2018-10-18T02:07:44.309Z,0
2018-10-18T02:08:52.371Z,0
2018-10-18T02:10:00.434Z,0
2018-10-18T02:11:08.476Z,0
2018-10-18T02:12:16.735Z,0
2018-10-18T02:13:24.686Z,0
2018-10-18T02:14:32.695Z,0
2018-10-18T02:15:40.776Z,0
2018-10-18T02:16:48.793Z,0
2018-10-18T02:17:56.947Z,0
2018-10-18T02:19:04.998Z,0
2018-10-18T02:20:13.005Z,0
2018-10-18T02:21:21.060Z,0
2018-10-18T02:22:29.128Z,0
2018-10-18T02:23:37.192Z,0
2018-10-18T02:24:45.272Z,0
2018-10-18T02:25:53.314Z,0
2018-10-18T02:27:01.380Z,0
2018-10-18T02:28:09.447Z,0
2018-10-18T02:29:17.525Z,0
2018-10-18T02:30:25.567Z,0
2018-10-18T02:31:33.637Z,0
2018-10-18T02:32:41.696Z,0
2018-10-18T02:33:49.773Z,0
2018-10-18T02:34:57.816Z,0
2018-10-18T02:36:05.892Z,0
2018-10-18T02:37:13.946Z,0
2018-10-18T02:38:22.016Z,0
2018-10-18T02:39:30.069Z,0
2018-10-18T02:40:38.123Z,0
2018-10-18T02:41:46.189Z,0
2018-10-18T02:42:54.256Z,0
2018-10-18T02:44:02.319Z,0
2018-10-18T02:45:10.379Z,0
2018-10-18T02:46:18.425Z,0
2018-10-18T02:47:26.507Z,0
2018-10-18T02:48:34.576Z,0
2018-10-18T02:49:42.635Z,0
2018-10-18T02:50:50.698Z,0
2018-10-18T02:51:58.741Z,0
2018-10-18T02:53:06.812Z,0
2018-10-18T02:54:14.947Z,0
2018-10-18T02:55:22.946Z,0
2018-10-18T02:56:31.010Z,0
2018-10-18T02:57:39.060Z,0
2018-10-18T02:58:47.142Z,0
2018-10-18T02:59:55.208Z,0
2018-10-18T03:01:03.267Z,0
2018-10-18T03:02:11.316Z,0
2018-10-18T03:03:19.382Z,0
2018-10-18T03:04:27.457Z,0
2018-10-18T03:05:35.517Z,0
2018-10-18T03:06:43.559Z,0
2018-10-18T03:07:51.638Z,0
2018-10-18T03:08:59.686Z,0
2018-10-18T03:10:07.765Z,0
2018-10-18T03:11:15.823Z,0
2018-10-18T03:12:23.899Z,0
2018-10-18T03:13:31.947Z,0
2018-10-18T03:14:40.017Z,0
2018-10-18T03:15:48.060Z,0
2018-10-18T03:16:56.147Z,0
2018-10-18T03:18:04.258Z,0
2018-10-18T03:19:12.277Z,0
2018-10-18T03:20:20.329Z,0
2018-10-18T03:21:28.350Z,0
2018-10-18T03:22:36.453Z,0
2018-10-18T03:23:44.513Z,0
2018-10-18T03:24:52.573Z,0
2018-10-18T03:26:00.630Z,0
2018-10-18T03:27:08.667Z,0
2018-10-18T03:28:16.761Z,0
2018-10-18T03:29:24.823Z,0
2018-10-18T03:30:32.896Z,0
2018-10-18T03:31:40.947Z,0
2018-10-18T03:32:49.000Z,0
2018-10-18T03:33:57.079Z,0
2018-10-18T03:35:05.140Z,0
2018-10-18T03:36:13.328Z,0
2018-10-18T03:37:21.256Z,0
2018-10-18T03:38:29.308Z,0
2018-10-18T03:39:37.934Z,0
2018-10-18T03:40:45.447Z,0
2018-10-18T03:41:53.566Z,0
2018-10-18T03:43:01.571Z,0
2018-10-18T03:44:09.627Z,0
2018-10-18T03:45:17.684Z,0
2018-10-18T03:46:25.754Z,0
2018-10-18T03:47:33.814Z,0
2018-10-18T03:48:41.874Z,0
2018-10-18T03:49:49.939Z,0
2018-10-18T03:50:57.999Z,0
2018-10-18T03:52:06.074Z,0
2018-10-18T03:53:14.152Z,0
2018-10-18T03:54:22.196Z,0
2018-10-18T03:55:30.300Z,0
2018-10-18T03:56:38.295Z,0
2018-10-18T03:57:46.874Z,0
2018-10-18T03:58:54.442Z,0
2018-10-18T04:00:03.558Z,0
2018-10-18T04:01:10.567Z,0
2018-10-18T04:02:18.626Z,0
2018-10-18T04:03:26.710Z,0
2018-10-18T04:04:34.757Z,0
2018-10-18T04:05:42.816Z,0
2018-10-18T04:06:50.887Z,0
2018-10-18T04:07:58.930Z,0
2018-10-18T04:09:07.006Z,0
2018-10-18T04:10:15.137Z,0
2018-10-18T04:11:23.553Z,0
2018-10-18T04:12:31.930Z,0
2018-10-18T04:13:39.303Z,0
2018-10-18T04:14:47.507Z,0
2018-10-18T04:15:55.396Z,0
2018-10-18T04:17:03.545Z,0
2018-10-18T04:18:11.678Z,0
2018-10-18T04:19:19.571Z,0
2018-10-18T04:20:27.636Z,0
2018-10-18T04:21:35.701Z,0
2018-10-18T04:22:43.794Z,0
2018-10-18T04:23:51.882Z,0
2018-10-18T04:24:59.892Z,0
2018-10-18T04:26:08.014Z,0
2018-10-18T04:27:16.019Z,0
2018-10-18T04:28:24.069Z,0
2018-10-18T04:29:32.150Z,0
2018-10-18T04:30:40.220Z,0
2018-10-18T04:31:48.234Z,0
2018-10-18T04:32:56.316Z,0
2018-10-18T04:34:04.390Z,0
2018-10-18T04:35:12.808Z,0
2018-10-18T04:36:20.621Z,0
2018-10-18T04:37:28.731Z,0
2018-10-18T04:38:36.632Z,0
2018-10-18T04:39:44.695Z,0
2018-10-18T04:40:52.766Z,0
2018-10-18T04:42:00.888Z,0
2018-10-18T04:43:09.172Z,0
2018-10-18T04:44:16.941Z,0
2018-10-18T04:45:25.693Z,0
2018-10-18T04:46:33.232Z,0
2018-10-18T04:47:41.175Z,0
2018-10-18T04:48:49.280Z,0
2018-10-18T04:49:57.267Z,0
2018-10-18T04:51:05.324Z,0
2018-10-18T04:52:13.376Z,0
2018-10-18T04:53:21.454Z,0
2018-10-18T04:54:29.509Z,0
2018-10-18T04:55:37.582Z,0
2018-10-18T04:56:45.714Z,0
2018-10-18T04:57:53.696Z,0
2018-10-18T04:59:01.764Z,0
2018-10-18T05:00:09.816Z,0
2018-10-18T05:01:18.047Z,0
2018-10-18T05:02:25.954Z,0
2018-10-18T05:03:34.020Z,0
2018-10-18T05:04:42.062Z,0
2018-10-18T05:05:50.121Z,0
2018-10-18T05:06:58.187Z,0
2018-10-18T05:08:06.264Z,0
2018-10-18T05:09:14.320Z,0
2018-10-18T05:10:22.564Z,0
2018-10-18T05:11:30.542Z,0
2018-10-18T05:12:38.646Z,0
2018-10-18T05:13:46.567Z,0
2018-10-18T05:14:54.628Z,0
2018-10-18T05:16:02.689Z,0
2018-10-18T05:17:10.770Z,0
2018-10-18T05:18:18.785Z,0
2018-10-18T05:19:26.878Z,0
2018-10-18T05:20:34.935Z,0
2018-10-18T05:21:43.046Z,0
2018-10-18T05:22:51.073Z,0
2018-10-18T05:23:59.124Z,0
2018-10-18T05:25:07.304Z,0
2018-10-18T05:26:15.256Z,0
2018-10-18T05:27:23.325Z,0
2018-10-18T05:28:31.375Z,0
2018-10-18T05:29:40.004Z,0
2018-10-18T05:30:47.540Z,0
2018-10-18T05:31:55.563Z,0
2018-10-18T05:33:03.627Z,0
2018-10-18T05:34:11.689Z,0
2018-10-18T05:35:19.765Z,0
2018-10-18T05:36:27.824Z,0
2018-10-18T05:37:35.978Z,0
2018-10-18T05:38:43.948Z,0
2018-10-18T05:39:52.014Z,0
2018-10-18T05:41:00.072Z,0
2018-10-18T05:42:08.126Z,0
2018-10-18T05:43:16.237Z,5
2018-10-18T05:44:24.276Z,5
2018-10-18T05:45:32.324Z,5
2018-10-18T05:46:40.479Z,5
2018-10-18T05:47:48.454Z,5
2018-10-18T05:48:56.542Z,5
2018-10-18T05:50:04.574Z,10
2018-10-18T05:51:12.637Z,10
2018-10-18T05:52:20.701Z,10
2018-10-18T05:53:28.839Z,10
2018-10-18T05:54:36.850Z,15
2018-10-18T05:55:44.893Z,15
2018-10-18T05:56:52.955Z,15
2018-10-18T05:58:01.010Z,15
2018-10-18T05:59:09.078Z,20
2018-10-18T06:00:17.282Z,20
2018-10-18T06:01:25.205Z,20
2018-10-18T06:02:33.265Z,20
2018-10-18T06:03:41.336Z,25
2018-10-18T06:04:49.387Z,25
2018-10-18T06:05:57.463Z,25
2018-10-18T06:07:05.586Z,25
2018-10-18T06:08:13.613Z,30
2018-10-18T06:09:21.629Z,30
2018-10-18T06:10:29.766Z,35
2018-10-18T06:11:37.781Z,35
2018-10-18T06:12:45.839Z,40
2018-10-18T06:13:53.899Z,40
2018-10-18T06:15:01.961Z,45
2018-10-18T06:16:10.021Z,45
2018-10-18T06:17:18.106Z,50
2018-10-18T06:18:26.135Z,50
2018-10-18T06:19:34.203Z,55
2018-10-18T06:20:42.271Z,55
2018-10-18T06:21:50.332Z,60
2018-10-18T06:22:58.556Z,60
2018-10-18T06:24:06.456Z,65
2018-10-18T06:25:14.696Z,65
2018-10-18T06:26:22.586Z,70
2018-10-18T06:27:30.644Z,70
2018-10-18T06:28:38.680Z,70
2018-10-18T06:29:46.774Z,75
2018-10-18T06:30:54.881Z,80
2018-10-18T06:32:02.908Z,80
2018-10-18T06:33:10.997Z,85
2018-10-18T06:34:19.027Z,90
2018-10-18T06:35:27.090Z,90
2018-10-18T06:36:35.152Z,95
2018-10-18T06:37:43.218Z,100
2018-10-18T06:38:51.286Z,100
2018-10-18T06:39:59.341Z,100
2018-10-18T06:41:07.564Z,105
2018-10-18T06:42:15.474Z,110
2018-10-18T06:43:23.527Z,110
2018-10-18T06:44:31.595Z,115
2018-10-18T06:45:39.657Z,115
2018-10-18T06:46:47.772Z,115
2018-10-18T06:47:55.913Z,120
2018-10-18T06:49:03.958Z,120
2018-10-18T06:50:11.907Z,125
2018-10-18T06:51:19.967Z,125
2018-10-18T06:52:28.020Z,130
2018-10-18T06:53:36.099Z,130
2018-10-18T06:54:44.168Z,135
2018-10-18T06:55:52.236Z,140
2018-10-18T06:57:00.285Z,140
2018-10-18T06:58:08.333Z,145
2018-10-18T06:59:16.418Z,145
2018-10-18T07:00:24.610Z,150
2018-10-18T07:01:32.560Z,150
2018-10-18T07:02:40.610Z,155
2018-10-18T07:03:48.650Z,155
2018-10-18T07:04:56.741Z,155
2018-10-18T07:06:04.861Z,155
2018-10-18T07:07:12.870Z,160
2018-10-18T07:08:20.926Z,160
2018-10-18T07:09:28.976Z,155
2018-10-18T07:10:37.105Z,160
2018-10-18T07:11:45.131Z,160
2018-10-18T07:12:53.193Z,160
2018-10-18T07:14:01.265Z,160
2018-10-18T07:15:09.327Z,160
2018-10-18T07:16:17.386Z,160
2018-10-18T07:17:25.472Z,160
2018-10-18T07:18:33.523Z,165
2018-10-18T07:19:41.590Z,165
2018-10-18T07:20:49.651Z,175
2018-10-18T07:21:57.731Z,175
2018-10-18T07:23:05.786Z,180
2018-10-18T07:24:13.900Z,180
2018-10-18T07:25:21.944Z,185
2018-10-18T07:26:29.972Z,190
2018-10-18T07:27:38.016Z,190
2018-10-18T07:28:46.115Z,195
2018-10-18T07:29:54.223Z,200
2018-10-18T07:31:02.235Z,195
2018-10-18T07:32:10.293Z,200
2018-10-18T07:33:18.353Z,205
2018-10-18T07:34:26.426Z,205
2018-10-18T07:35:34.489Z,210
2018-10-18T07:36:42.563Z,210
2018-10-18T07:37:50.636Z,210
2018-10-18T07:38:58.658Z,215
2018-10-18T07:40:06.761Z,215
2018-10-18T07:41:14.936Z,215
2018-10-18T07:42:22.894Z,220
2018-10-18T07:43:30.953Z,220
2018-10-18T07:44:39.003Z,220
2018-10-18T07:45:47.078Z,220
2018-10-18T07:46:55.232Z,225
2018-10-18T07:48:03.239Z,225
2018-10-18T07:49:11.280Z,225
2018-10-18T07:50:19.360Z,225
2018-10-18T07:51:27.409Z,230
2018-10-18T07:52:35.479Z,230
2018-10-18T07:53:43.587Z,230
2018-10-18T07:54:51.608Z,230
2018-10-18T07:55:59.694Z,235
2018-10-18T07:57:07.764Z,235
2018-10-18T07:58:15.822Z,235
2018-10-18T07:59:23.883Z,235
2018-10-18T08:00:32.109Z,240
2018-10-18T08:01:40.012Z,240
2018-10-18T08:02:48.061Z,245
2018-10-18T08:03:56.146Z,245
2018-10-18T08:05:04.211Z,245
2018-10-18T08:06:12.284Z,245
2018-10-18T08:07:20.334Z,245
2018-10-18T08:08:28.378Z,250
2018-10-18T08:09:36.466Z,245
2018-10-18T08:10:44.547Z,245
2018-10-18T08:11:52.597Z,245
2018-10-18T08:13:00.739Z,245
2018-10-18T08:14:08.707Z,245
2018-10-18T08:15:16.801Z,250
2018-10-18T08:16:24.867Z,255
2018-10-18T08:17:33.064Z,255
2018-10-18T08:18:40.998Z,260
2018-10-18T08:19:49.058Z,260
2018-10-18T08:20:57.143Z,265
2018-10-18T08:22:05.202Z,270
2018-10-18T08:23:13.277Z,265
2018-10-18T08:24:21.340Z,270
2018-10-18T08:25:29.403Z,275
2018-10-18T08:26:37.462Z,280
2018-10-18T08:27:45.537Z,280
2018-10-18T08:28:53.603Z,280
2018-10-18T08:30:01.683Z,285
2018-10-18T08:31:09.811Z,285
2018-10-18T08:32:17.820Z,290
2018-10-18T08:33:25.877Z,290
2018-10-18T08:34:33.937Z,295
2018-10-18T08:35:42.324Z,300
2018-10-18T08:36:50.073Z,305
2018-10-18T08:37:58.266Z,305
2018-10-18T08:39:06.216Z,310
2018-10-18T08:40:14.286Z,310
2018-10-18T08:41:22.353Z,310
2018-10-18T08:42:30.419Z,310
2018-10-18T08:43:38.447Z,310
2018-10-18T08:44:47.342Z,310
2018-10-18T08:45:54.613Z,315
2018-10-18T08:47:02.683Z,315
2018-10-18T08:48:10.744Z,320
2018-10-18T08:49:18.864Z,325
2018-10-18T08:50:26.871Z,325
2018-10-18T08:51:34.949Z,330
2018-10-18T08:52:43.008Z,330
2018-10-18T08:53:51.072Z,330
2018-10-18T08:54:59.157Z,330
2018-10-18T08:56:07.213Z,325
2018-10-18T08:57:15.274Z,325
2018-10-18T08:58:23.353Z,325
2018-10-18T08:59:31.424Z,325
2018-10-18T09:00:39.481Z,325
2018-10-18T09:01:47.544Z,325
2018-10-18T09:02:55.620Z,320
2018-10-18T09:04:03.702Z,320
2018-10-18T09:05:11.766Z,320
2018-10-18T09:06:19.824Z,315
2018-10-18T09:07:27.898Z,315
2018-10-18T09:08:35.979Z,315
2018-10-18T09:09:44.019Z,315
2018-10-18T09:10:52.093Z,315
2018-10-18T09:12:00.184Z,315
2018-10-18T09:13:08.530Z,315
2018-10-18T09:14:16.296Z,315
2018-10-18T09:15:24.369Z,315
2018-10-18T09:16:32.443Z,315
2018-10-18T09:17:40.501Z,310
2018-10-18T09:18:48.595Z,310
2018-10-18T09:19:56.644Z,310
2018-10-18T09:21:04.703Z,305
2018-10-18T09:22:12.778Z,305
2018-10-18T09:23:20.840Z,305
2018-10-18T09:24:28.899Z,305
2018-10-18T09:25:37.015Z,305
2018-10-18T09:26:45.053Z,305
2018-10-18T09:27:53.116Z,305
2018-10-18T09:29:01.181Z,305
2018-10-18T09:30:09.277Z,305
2018-10-18T09:31:17.422Z,305
2018-10-18T09:32:25.404Z,300
2018-10-18T09:33:33.453Z,305
2018-10-18T09:34:41.529Z,305
2018-10-18T09:35:49.604Z,305
2018-10-18T09:36:57.720Z,305
2018-10-18T09:38:05.723Z,305
2018-10-18T09:39:13.801Z,300
2018-10-18T09:40:21.874Z,300
2018-10-18T09:41:29.937Z,300
2018-10-18T09:42:37.993Z,300
2018-10-18T09:43:46.076Z,295
2018-10-18T09:44:54.153Z,295
2018-10-18T09:46:02.206Z,295
2018-10-18T09:47:10.274Z,295
2018-10-18T09:48:18.312Z,295
2018-10-18T09:49:26.406Z,300
2018-10-18T09:50:34.477Z,295
2018-10-18T09:51:42.566Z,295
2018-10-18T09:52:50.625Z,295
2018-10-18T09:53:58.654Z,295
2018-10-18T09:55:06.820Z,295
2018-10-18T09:56:14.906Z,295
2018-10-18T09:57:22.891Z,295
2018-10-18T09:58:30.970Z,300
2018-10-18T09:59:39.000Z,300
2018-10-18T10:00:47.099Z,300
2018-10-18T10:01:55.157Z,300
2018-10-18T10:03:03.239Z,300
2018-10-18T10:04:11.320Z,300
2018-10-18T10:05:19.359Z,300
2018-10-18T10:06:27.445Z,300
2018-10-18T10:07:35.512Z,305
2018-10-18T10:08:43.584Z,295
2018-10-18T10:09:51.631Z,290
2018-10-18T10:10:59.707Z,295
2018-10-18T10:12:07.784Z,295
2018-10-18T10:13:16.020Z,290
2018-10-18T10:14:23.924Z,285
2018-10-18T10:15:31.983Z,285
2018-10-18T10:16:40.063Z,285
2018-10-18T10:17:48.218Z,285
2018-10-18T10:18:56.190Z,280
2018-10-18T10:20:04.255Z,280
2018-10-18T10:21:12.342Z,275
2018-10-18T10:22:20.401Z,275
2018-10-18T10:23:28.435Z,270
2018-10-18T10:24:36.589Z,265
2018-10-18T10:25:44.616Z,265
2018-10-18T10:26:52.677Z,260
2018-10-18T10:28:00.733Z,260
2018-10-18T10:29:08.782Z,255
2018-10-18T10:30:16.941Z,250
2018-10-18T10:31:24.944Z,250
2018-10-18T10:32:33.012Z,250
2018-10-18T10:33:41.084Z,255
2018-10-18T10:34:49.144Z,255
2018-10-18T10:35:57.215Z,255
2018-10-18T10:37:05.337Z,255
2018-10-18T10:38:13.351Z,255
2018-10-18T10:39:21.428Z,250
2018-10-18T10:40:29.494Z,255
2018-10-18T10:41:37.566Z,255
2018-10-18T10:42:45.682Z,255
2018-10-18T10:43:53.751Z,255
2018-10-18T10:45:01.815Z,250
2018-10-18T10:46:09.875Z,250
2018-10-18T10:47:17.903Z,250
2018-10-18T10:48:25.985Z,250
2018-10-18T10:49:34.052Z,245
2018-10-18T10:50:42.117Z,245
2018-10-18T10:51:50.189Z,240
2018-10-18T10:52:58.229Z,235
2018-10-18T10:54:06.408Z,230
2018-10-18T10:55:14.387Z,225
2018-10-18T10:56:22.459Z,225
2018-10-18T10:57:30.631Z,225
2018-10-18T10:58:38.591Z,220
2018-10-18T10:59:46.659Z,220
2018-10-18T11:00:54.743Z,215
2018-10-18T11:02:02.827Z,210
2018-10-18T11:03:10.915Z,210
2018-10-18T11:04:18.910Z,210
2018-10-18T11:05:27.007Z,215
2018-10-18T11:06:35.076Z,210
2018-10-18T11:07:43.127Z,210
2018-10-18T11:08:51.215Z,210
2018-10-18T11:09:59.271Z,210
2018-10-18T11:11:07.348Z,210
2018-10-18T11:12:15.468Z,210
2018-10-18T11:13:23.476Z,210
2018-10-18T11:14:31.547Z,210
2018-10-18T11:15:39.632Z,215
2018-10-18T11:16:47.682Z,215
2018-10-18T11:17:55.787Z,215
2018-10-18T11:19:03.825Z,215
2018-10-18T11:20:11.962Z,215
2018-10-18T11:21:20.068Z,215
2018-10-18T11:22:28.006Z,215
2018-10-18T11:23:36.090Z,220
2018-10-18T11:24:44.220Z,215
2018-10-18T11:25:52.281Z,220
2018-10-18T11:27:00.347Z,220
2018-10-18T11:28:08.332Z,220
2018-10-18T11:29:16.438Z,220
2018-10-18T11:30:24.514Z,220
2018-10-18T11:31:32.577Z,220
2018-10-18T11:32:40.647Z,220
2018-10-18T11:33:48.685Z,220
2018-10-18T11:34:56.784Z,220
2018-10-18T11:36:04.883Z,220
2018-10-18T11:37:12.919Z,220
2018-10-18T11:38:20.985Z,220
2018-10-18T11:39:29.050Z,220
2018-10-18T11:40:37.132Z,220
2018-10-18T11:41:45.188Z,225
2018-10-18T11:42:53.271Z,220
2018-10-18T11:44:01.355Z,220
2018-10-18T11:45:09.424Z,220
2018-10-18T11:46:17.471Z,220
2018-10-18T11:47:25.539Z,220
2018-10-18T11:48:33.600Z,220
2018-10-18T11:49:41.678Z,220
2018-10-18T11:50:49.753Z,225
2018-10-18T11:51:57.849Z,220
2018-10-18T11:53:05.882Z,220
2018-10-18T11:54:14.092Z,225
2018-10-18T11:55:21.999Z,220
2018-10-18T11:56:30.084Z,220
2018-10-18T11:57:38.139Z,225
2018-10-18T11:58:46.213Z,220
2018-10-18T11:59:54.288Z,215
2018-10-18T12:01:02.416Z,215
2018-10-18T12:02:10.516Z,215
2018-10-18T12:03:18.471Z,215
2018-10-18T12:04:26.576Z,210
2018-10-18T12:05:34.641Z,215
2018-10-18T12:06:42.689Z,215
2018-10-18T12:07:50.769Z,210
2018-10-18T12:08:58.812Z,210
2018-10-18T12:10:06.926Z,210
2018-10-18T12:11:14.998Z,210
2018-10-18T12:12:23.041Z,210
2018-10-18T12:13:31.113Z,210
2018-10-18T12:14:39.181Z,205
2018-10-18T12:15:47.251Z,205
2018-10-18T12:16:55.319Z,205
2018-10-18T12:18:03.380Z,205
2018-10-18T12:19:11.533Z,205
2018-10-18T12:20:19.570Z,200
2018-10-18T12:21:27.586Z,200
2018-10-18T12:22:35.662Z,200
2018-10-18T12:23:43.719Z,200
2018-10-18T12:24:51.808Z,195
2018-10-18T12:25:59.919Z,195
2018-10-18T12:27:07.925Z,195
2018-10-18T12:28:16.005Z,195
2018-10-18T12:29:24.071Z,195
2018-10-18T12:30:32.129Z,195
2018-10-18T12:31:40.205Z,195
2018-10-18T12:32:48.246Z,195
2018-10-18T12:33:56.355Z,195
2018-10-18T12:35:04.471Z,195
2018-10-18T12:36:12.483Z,190
2018-10-18T12:37:20.555Z,190
2018-10-18T12:38:28.587Z,195
2018-10-18T12:39:36.747Z,195
2018-10-18T12:40:44.815Z,195
2018-10-18T12:41:52.861Z,200
2018-10-18T12:43:00.900Z,195
2018-10-18T12:44:09.032Z,195
2018-10-18T12:45:17.026Z,195
2018-10-18T12:46:25.103Z,195
2018-10-18T12:47:33.175Z,195
2018-10-18T12:48:41.372Z,190
2018-10-18T12:49:49.306Z,195
2018-10-18T12:50:57.384Z,190
2018-10-18T12:52:05.436Z,190
2018-10-18T12:53:13.515Z,190
2018-10-18T12:54:21.624Z,185
2018-10-18T12:55:29.659Z,185
2018-10-18T12:56:37.732Z,185
2018-10-18T12:57:45.781Z,185
2018-10-18T12:58:53.854Z,185
2018-10-18T13:00:01.941Z,180
2018-10-18T13:01:09.991Z,180
2018-10-18T13:02:18.068Z,180
2018-10-18T13:03:26.128Z,185
2018-10-18T13:04:34.189Z,180
2018-10-18T13:05:42.255Z,180
2018-10-18T13:06:50.337Z,180
2018-10-18T13:07:58.427Z,180
2018-10-18T13:09:06.495Z,180
2018-10-18T13:10:14.537Z,180
2018-10-18T13:11:22.606Z,180
2018-10-18T13:12:30.846Z,180
2018-10-18T13:13:38.730Z,180
2018-10-18T13:14:46.804Z,180
2018-10-18T13:15:54.889Z,180
2018-10-18T13:17:02.948Z,175
2018-10-18T13:18:11.110Z,175
2018-10-18T13:19:19.080Z,175
2018-10-18T13:20:27.156Z,175
2018-10-18T13:21:35.223Z,175
2018-10-18T13:22:43.295Z,175
2018-10-18T13:23:51.367Z,175
2018-10-18T13:24:59.433Z,170
2018-10-18T13:26:07.509Z,170
2018-10-18T13:27:15.581Z,170
2018-10-18T13:28:23.641Z,170
2018-10-18T13:29:31.704Z,170
2018-10-18T13:30:39.778Z,170
2018-10-18T13:31:47.839Z,170
2018-10-18T13:32:55.917Z,165
2018-10-18T13:34:04.149Z,165
2018-10-18T13:35:12.052Z,160
2018-10-18T13:36:20.126Z,160
2018-10-18T13:37:28.250Z,160
2018-10-18T13:38:36.259Z,155
2018-10-18T13:39:44.329Z,155
2018-10-18T13:40:52.530Z,150
2018-10-18T13:42:00.503Z,150
2018-10-18T13:43:08.499Z,150
2018-10-18T13:44:16.702Z,150
2018-10-18T13:45:24.671Z,145
2018-10-18T13:46:32.779Z,145
2018-10-18T13:47:40.811Z,145
2018-10-18T13:48:48.854Z,145
2018-10-18T13:49:57.004Z,140
2018-10-18T13:51:05.005Z,140
2018-10-18T13:52:13.076Z,140
2018-10-18T13:53:21.133Z,140
2018-10-18T13:54:29.212Z,135
2018-10-18T13:55:37.283Z,135
2018-10-18T13:56:45.350Z,135
2018-10-18T13:57:53.430Z,135
2018-10-18T13:59:01.513Z,135
2018-10-18T14:00:09.583Z,135
2018-10-18T14:01:17.630Z,135
2018-10-18T14:02:25.695Z,135
2018-10-18T14:03:33.768Z,135
2018-10-18T14:04:41.822Z,130
2018-10-18T14:05:49.976Z,130
2018-10-18T14:06:57.965Z,130
2018-10-18T14:08:06.164Z,130
2018-10-18T14:09:14.105Z,130
2018-10-18T14:10:22.169Z,125
2018-10-18T14:11:30.244Z,125
2018-10-18T14:12:38.288Z,130
2018-10-18T14:13:46.392Z,130
2018-10-18T14:14:54.451Z,130
2018-10-18T14:16:02.518Z,130
2018-10-18T14:17:10.707Z,125
2018-10-18T14:18:18.611Z,125
2018-10-18T14:19:26.720Z,125
2018-10-18T14:20:34.785Z,125
2018-10-18T14:21:42.855Z,130
2018-10-18T14:22:50.916Z,125
2018-10-18T14:23:58.965Z,125
2018-10-18T14:25:07.062Z,125
2018-10-18T14:26:15.223Z,120
2018-10-18T14:27:23.184Z,120
2018-10-18T14:28:31.260Z,120
2018-10-18T14:29:39.341Z,115
2018-10-18T14:30:47.534Z,115
2018-10-18T14:31:55.471Z,115
2018-10-18T14:33:03.523Z,115
2018-10-18T14:34:11.603Z,115
2018-10-18T14:35:19.801Z,110
2018-10-18T14:36:27.736Z,110
2018-10-18T14:37:35.799Z,110
2018-10-18T14:38:44.069Z,105
2018-10-18T14:39:51.943Z,105
2018-10-18T14:41:00.052Z,105
2018-10-18T14:42:08.061Z,105
2018-10-18T14:43:16.150Z,105
2018-10-18T14:44:24.395Z,105
2018-10-18T14:45:32.283Z,105
2018-10-18T14:46:40.349Z,105
2018-10-18T14:47:48.460Z,100
2018-10-18T14:48:56.485Z,100
2018-10-18T14:50:04.620Z,100
2018-10-18T14:51:12.614Z,100
2018-10-18T14:52:20.762Z,95
2018-10-18T14:53:28.778Z,95
2018-10-18T14:54:36.830Z,95
2018-10-18T14:55:44.902Z,95
2018-10-18T14:56:52.960Z,95
2018-10-18T14:58:01.021Z,95
2018-10-18T14:59:09.121Z,95
2018-10-18T15:00:17.159Z,95
2018-10-18T15:01:25.253Z,95
2018-10-18T15:02:33.289Z,90
2018-10-18T15:03:41.354Z,90
2018-10-18T15:04:49.433Z,90
2018-10-18T15:05:57.498Z,90
2018-10-18T15:07:05.568Z,90
2018-10-18T15:08:13.716Z,85
2018-10-18T15:09:21.695Z,85
2018-10-18T15:10:29.801Z,85
2018-10-18T15:11:37.848Z,90
2018-10-18T15:12:46.000Z,85
2018-10-18T15:13:54.040Z,85
2018-10-18T15:15:02.026Z,85
2018-10-18T15:16:10.110Z,80
2018-10-18T15:17:18.149Z,80
2018-10-18T15:18:26.251Z,80
2018-10-18T15:19:34.324Z,75
2018-10-18T15:20:42.383Z,75
2018-10-18T15:21:50.449Z,75
2018-10-18T15:22:58.552Z,75
2018-10-18T15:24:06.571Z,70
2018-10-18T15:25:14.732Z,70
2018-10-18T15:26:22.856Z,70
2018-10-18T15:27:30.959Z,70
2018-10-18T15:28:38.816Z,65
2018-10-18T15:29:46.917Z,65
2018-10-18T15:30:54.985Z,65
2018-10-18T15:32:03.145Z,65
2018-10-18T15:33:11.204Z,65
2018-10-18T15:34:19.179Z,65
2018-10-18T15:35:27.240Z,60
2018-10-18T15:36:35.315Z,60
2018-10-18T15:37:43.430Z,60
2018-10-18T15:38:51.584Z,60
2018-10-18T15:39:59.509Z,60
2018-10-18T15:41:07.662Z,55
2018-10-18T15:42:15.662Z,55
2018-10-18T15:43:23.731Z,55
2018-10-18T15:44:31.791Z,55
2018-10-18T15:45:39.858Z,55
2018-10-18T15:46:47.929Z,50
2018-10-18T15:47:56.007Z,50
2018-10-18T15:49:04.060Z,50
2018-10-18T15:50:12.135Z,50
2018-10-18T15:51:20.194Z,45
2018-10-18T15:52:28.331Z,45
2018-10-18T15:53:36.361Z,45
2018-10-18T15:54:44.400Z,45
2018-10-18T15:55:52.465Z,40
2018-10-18T15:57:00.579Z,40
2018-10-18T15:58:08.565Z,40
2018-10-18T15:59:16.786Z,35
2018-10-18T16:00:24.823Z,35
2018-10-18T16:01:32.798Z,35
2018-10-18T16:02:40.858Z,35
2018-10-18T16:03:48.931Z,30
2018-10-18T16:04:57.025Z,30
2018-10-18T16:06:05.079Z,30